createdAt,value
2023-01-11T00:01:04.978Z,2.30
2023-01-11T00:03:33.187Z,2.53
2023-01-11T00:06:00.989Z,2.30
2023-01-11T00:08:28.811Z,2.33
2023-01-11T00:10:56.293Z,2.40
2023-01-11T00:13:23.989Z,2.97
2023-01-11T00:15:51.662Z,2.90
2023-01-11T00:18:19.247Z,2.53
2023-01-11T00:20:46.909Z,2.60
2023-01-11T00:23:14.431Z,2.47
2023-01-11T00:25:41.913Z,2.73
2023-01-11T00:28:09.686Z,2.13
2023-01-11T00:30:37.480Z,2.47
2023-01-11T00:33:04.988Z,2.77
2023-01-11T00:35:33.011Z,2.70
2023-01-11T00:38:03.664Z,3.50
2023-01-11T00:40:31.366Z,3.17
2023-01-11T00:43:17.252Z,2.73
2023-01-11T00:46:19.922Z,3.23
2023-01-11T00:48:47.378Z,2.43
2023-01-11T00:51:15.365Z,3.00
2023-01-11T00:53:43.530Z,2.47
2023-01-11T00:56:10.995Z,2.33
2023-01-11T00:58:41.832Z,2.70
2023-01-11T01:01:12.185Z,2.40
2023-01-11T01:03:39.794Z,1.83
2023-01-11T01:06:07.288Z,2.93
2023-01-11T01:08:35.679Z,2.47
2023-01-11T01:11:03.274Z,2.40
2023-01-11T01:13:51.847Z,2.23
2023-01-11T01:16:20.207Z,2.80
2023-01-11T01:18:47.965Z,2.80
2023-01-11T01:21:15.763Z,1.87
2023-01-11T01:23:43.571Z,2.13
2023-01-11T01:26:11.047Z,2.67
2023-01-11T01:28:38.567Z,2.20
2023-01-11T01:31:06.093Z,2.80
2023-01-11T01:33:39.248Z,2.40
2023-01-11T01:36:08.468Z,2.37
2023-01-11T01:38:36.064Z,2.07
2023-01-11T01:41:04.651Z,2.30
2023-01-11T01:43:53.937Z,3.07
2023-01-11T01:46:26.491Z,3.17
2023-01-11T01:48:59.418Z,2.27
2023-01-11T01:51:50.034Z,2.33
2023-01-11T01:54:25.551Z,2.40
2023-01-11T01:56:59.580Z,2.37
2023-01-11T01:59:30.406Z,2.60
2023-01-11T02:01:58.268Z,3.20
2023-01-11T02:04:32.326Z,2.80
2023-01-11T02:07:03.900Z,2.00
2023-01-11T02:09:40.864Z,2.90
2023-01-11T02:12:09.230Z,2.45
2023-01-11T02:14:39.520Z,2.13
2023-01-11T02:17:26.927Z,2.43
2023-01-11T02:20:06.655Z,1.70
2023-01-11T02:22:39.792Z,2.83
2023-01-11T02:25:07.361Z,2.13
2023-01-11T02:28:34.539Z,2.20
2023-01-11T02:31:41.446Z,2.80
2023-01-11T02:34:45.483Z,2.83
2023-01-11T02:37:28.513Z,2.40
2023-01-11T02:39:59.136Z,2.53
2023-01-11T02:42:57.854Z,2.57
2023-01-11T02:45:43.418Z,2.63
2023-01-11T02:51:07.805Z,3.60
2023-01-11T02:53:49.771Z,3.03
2023-01-11T02:56:25.527Z,2.83
2023-01-11T02:58:55.936Z,2.90
2023-01-11T03:01:25.602Z,3.23
2023-01-11T03:03:53.940Z,3.27
2023-01-11T03:06:26.381Z,2.53
2023-01-11T03:09:30.403Z,2.07
2023-01-11T03:12:52.296Z,2.47
2023-01-11T03:15:31.839Z,3.40
2023-01-11T03:18:11.584Z,2.63
2023-01-11T03:20:44.648Z,2.70
2023-01-11T03:23:56.632Z,2.90
2023-01-11T03:26:33.347Z,3.07
2023-01-11T03:29:23.543Z,3.10
2023-01-11T03:32:04.199Z,2.93
2023-01-11T03:34:34.655Z,2.77
2023-01-11T03:37:09.936Z,2.63
2023-01-11T03:39:46.380Z,2.60
2023-01-11T03:42:22.959Z,2.50
2023-01-11T03:44:53.516Z,2.75
2023-01-11T03:47:26.037Z,3.40
2023-01-11T03:50:02.311Z,3.10
2023-01-11T03:52:38.684Z,2.97
2023-01-11T03:55:10.835Z,2.80
2023-01-11T03:57:44.034Z,3.60
2023-01-11T04:00:12.019Z,2.60
2023-01-11T04:02:41.645Z,3.03
2023-01-11T04:05:10.637Z,2.60
2023-01-11T04:07:38.423Z,2.30
2023-01-11T04:10:06.827Z,2.67
2023-01-11T04:12:34.362Z,2.87
2023-01-11T04:15:05.819Z,2.57
2023-01-11T04:17:33.453Z,3.00
2023-01-11T04:20:01.460Z,2.87
2023-01-11T04:22:34.118Z,2.73
2023-01-11T04:25:02.596Z,2.70
2023-01-11T04:27:30.294Z,2.43
2023-01-11T04:29:57.975Z,2.47
2023-01-11T04:32:25.436Z,3.30
2023-01-11T04:34:52.974Z,2.90
2023-01-11T04:37:20.499Z,2.97
2023-01-11T04:39:48.030Z,2.70
2023-01-11T04:42:22.474Z,3.20
2023-01-11T04:44:51.128Z,2.83
2023-01-11T04:47:21.235Z,3.83
2023-01-11T04:49:48.985Z,3.10
2023-01-11T04:52:18.475Z,2.97
2023-01-11T04:54:47.345Z,2.70
2023-01-11T04:57:17.095Z,2.40
2023-01-11T04:59:48.970Z,3.27
2023-01-11T05:02:17.124Z,2.23
2023-01-11T05:04:44.958Z,2.37
2023-01-11T05:07:12.948Z,2.87
2023-01-11T05:09:41.934Z,3.07
2023-01-11T05:12:09.419Z,2.33
2023-01-11T05:14:38.002Z,3.23
2023-01-11T05:17:05.738Z,3.33
2023-01-11T05:19:33.222Z,3.07
2023-01-11T05:22:00.828Z,3.37
2023-01-11T05:24:28.332Z,3.53
2023-01-11T05:26:56.133Z,3.13
2023-01-11T05:29:24.071Z,3.20
2023-01-11T05:31:51.551Z,3.00
2023-01-11T05:34:19.296Z,2.57
2023-01-11T05:36:46.973Z,2.90
2023-01-11T05:39:15.190Z,3.97
2023-01-11T05:41:42.715Z,3.10
2023-01-11T05:44:32.287Z,2.63
2023-01-11T05:47:00.892Z,3.43
2023-01-11T05:49:28.445Z,3.07
2023-01-11T05:51:56.087Z,3.30
2023-01-11T05:54:26.570Z,2.93
2023-01-11T05:56:57.504Z,3.03
2023-01-11T05:59:27.012Z,3.40
2023-01-11T06:01:54.630Z,2.70
2023-01-11T06:04:25.460Z,2.67
2023-01-11T06:06:53.394Z,2.93
2023-01-11T06:09:20.908Z,3.07
2023-01-11T06:11:50.679Z,3.10
2023-01-11T06:14:18.105Z,3.00
2023-01-11T06:16:45.622Z,3.27
2023-01-11T06:19:17.515Z,3.10
2023-01-11T06:21:45.038Z,3.77
2023-01-11T06:24:12.546Z,3.40
2023-01-11T06:26:42.186Z,3.60
2023-01-11T06:29:11.717Z,2.90
2023-01-11T06:31:41.764Z,2.73
2023-01-11T06:34:11.723Z,3.00
2023-01-11T06:36:39.846Z,3.17
2023-01-11T06:39:07.381Z,4.23
2023-01-11T06:41:35.224Z,3.50
2023-01-11T06:44:02.961Z,2.53
2023-01-11T06:46:30.561Z,3.30
2023-01-11T06:48:58.275Z,3.20
2023-01-11T06:51:28.180Z,3.20
2023-01-11T06:53:56.029Z,3.20
2023-01-11T06:56:23.947Z,3.40
2023-01-11T06:58:52.683Z,3.10
2023-01-11T07:01:21.296Z,2.63
2023-01-11T07:03:48.927Z,3.53
2023-01-11T07:06:19.562Z,2.93
2023-01-11T07:08:50.336Z,3.33
2023-01-11T07:11:18.117Z,3.50
2023-01-11T07:13:45.894Z,3.73
2023-01-11T07:16:13.349Z,3.60
2023-01-11T07:18:40.903Z,3.20
2023-01-11T07:21:08.517Z,3.30
2023-01-11T07:23:39.300Z,3.63
2023-01-11T07:26:06.881Z,3.03
2023-01-11T07:28:37.170Z,2.97
2023-01-11T07:31:05.910Z,3.27
2023-01-11T07:33:33.436Z,2.60
2023-01-11T07:36:01.258Z,4.37
2023-01-11T07:38:29.635Z,4.50
2023-01-11T07:40:57.147Z,5.47
2023-01-11T07:43:24.630Z,3.27
2023-01-11T07:45:53.978Z,6.30
2023-01-11T07:48:27.430Z,4.47
2023-01-11T07:50:55.400Z,4.63
2023-01-11T07:53:25.813Z,3.50
2023-01-11T07:55:56.149Z,3.00
2023-01-11T07:58:23.751Z,4.30
2023-01-11T08:00:53.921Z,3.90
2023-01-11T08:03:22.706Z,2.67
2023-01-11T08:05:54.343Z,3.10
2023-01-11T08:08:23.164Z,3.43
2023-01-11T08:11:09.324Z,3.37
2023-01-11T08:13:55.614Z,2.83
2023-01-11T08:16:23.589Z,3.00
2023-01-11T08:18:52.737Z,2.67
2023-01-11T08:21:21.526Z,3.07
2023-01-11T08:23:49.190Z,3.50
2023-01-11T08:26:18.215Z,3.60
2023-01-11T08:28:48.832Z,3.50
2023-01-11T08:31:17.070Z,3.67
2023-01-11T08:33:45.796Z,3.47
2023-01-11T08:36:13.583Z,4.40
2023-01-11T08:38:41.278Z,4.43
2023-01-11T08:41:10.947Z,4.23
2023-01-11T08:43:39.146Z,3.30
2023-01-11T08:46:07.463Z,3.53
2023-01-11T08:48:35.180Z,4.37
2023-01-11T08:51:02.774Z,4.67
2023-01-11T08:53:30.314Z,4.13
2023-01-11T08:55:57.839Z,4.73
2023-01-11T08:58:25.654Z,4.80
2023-01-11T09:00:53.308Z,4.40
2023-01-11T09:03:20.906Z,4.47
2023-01-11T09:05:48.494Z,4.27
2023-01-11T09:08:15.922Z,4.20
2023-01-11T09:10:43.423Z,4.27
2023-01-11T09:13:10.942Z,3.93
2023-01-11T09:15:38.626Z,4.30
2023-01-11T09:18:06.255Z,3.40
2023-01-11T09:20:34.325Z,3.80
2023-01-11T09:23:01.923Z,4.63
2023-01-11T09:25:29.497Z,3.80
2023-01-11T09:27:56.960Z,4.47
2023-01-11T09:30:25.217Z,3.93
2023-01-11T09:32:53.053Z,3.97
2023-01-11T09:35:22.705Z,3.03
2023-01-11T09:37:51.724Z,3.90
2023-01-11T09:40:31.058Z,3.77
2023-01-11T09:43:05.069Z,4.13
2023-01-11T09:45:34.200Z,4.83
2023-01-11T09:48:15.519Z,3.50
2023-01-11T09:50:47.890Z,5.97
2023-01-11T09:53:32.645Z,4.43
2023-01-11T09:56:05.322Z,4.40
2023-01-11T09:58:54.448Z,4.80
2023-01-11T10:01:47.097Z,3.10
2023-01-11T10:04:42.123Z,3.50
2023-01-11T10:07:12.566Z,2.80
2023-01-11T10:18:38.800Z,3.03
2023-01-11T10:19:33.426Z,2.77
2023-01-11T10:21:56.065Z,3.03
2023-01-11T10:24:27.338Z,5.13
2023-01-11T10:27:00.059Z,2.57
2023-01-11T10:30:04.118Z,2.97
2023-01-11T10:32:58.218Z,3.23
2023-01-11T10:35:42.160Z,2.87
2023-01-11T10:38:36.677Z,3.53
2023-01-11T10:41:19.871Z,2.87
2023-01-11T10:43:53.922Z,2.90
2023-01-11T10:46:26.941Z,3.37
2023-01-11T10:49:30.277Z,2.93
2023-01-11T10:52:12.524Z,3.00
2023-01-11T10:54:46.796Z,2.70
2023-01-11T10:57:24.259Z,3.13
2023-01-11T10:59:59.611Z,3.42
2023-01-11T11:02:58.382Z,3.40
2023-01-11T11:08:26.673Z,2.37
2023-01-11T11:11:01.139Z,2.50
2023-01-11T11:13:53.394Z,2.67
2023-01-11T11:16:24.190Z,2.80
2023-01-11T11:18:55.922Z,2.70
2023-01-11T11:21:30.931Z,2.80
2023-01-11T11:24:21.071Z,3.10
2023-01-11T11:26:55.387Z,2.80
2023-01-11T11:29:29.378Z,2.60
2023-01-11T11:32:01.055Z,2.73
2023-01-11T11:34:31.238Z,2.97
2023-01-11T11:37:00.723Z,2.80
2023-01-11T11:39:29.587Z,3.57
2023-01-11T11:42:06.690Z,2.73
2023-01-11T11:44:35.409Z,3.40
2023-01-11T11:47:22.543Z,3.70
2023-01-11T11:49:50.194Z,3.67
2023-01-11T11:52:20.651Z,3.10
2023-01-11T11:54:57.130Z,3.00
2023-01-11T11:57:29.980Z,3.40
2023-01-11T12:00:06.137Z,3.10
2023-01-11T12:02:37.048Z,3.97
2023-01-11T12:05:10.538Z,3.40
2023-01-11T12:07:54.311Z,3.90
2023-01-11T12:10:25.641Z,3.70
2023-01-11T12:13:02.728Z,3.20
2023-01-11T12:15:32.701Z,2.55
2023-01-11T12:18:37.317Z,3.60
2023-01-11T12:21:21.577Z,3.80
2023-01-11T12:24:08.500Z,3.73
2023-01-11T12:26:46.131Z,3.47
2023-01-11T12:29:29.044Z,3.93
2023-01-11T12:32:13.883Z,3.47
2023-01-11T12:34:51.940Z,2.70
2023-01-11T12:37:28.494Z,3.20
2023-01-11T12:40:13.513Z,2.83
2023-01-11T12:43:05.924Z,3.30
2023-01-11T12:45:54.806Z,3.97
2023-01-11T12:48:32.357Z,2.83
2023-01-11T12:54:14.272Z,2.80
2023-01-11T12:57:09.622Z,2.97
2023-01-11T13:00:13.508Z,3.20
2023-01-11T13:02:46.933Z,3.17
2023-01-11T13:05:26.230Z,3.53
2023-01-11T13:08:22.094Z,3.10
2023-01-11T13:11:05.056Z,2.20
2023-01-11T13:14:00.334Z,3.47
2023-01-11T13:16:38.728Z,2.57
2023-01-11T13:19:15.228Z,2.57
2023-01-11T13:21:53.100Z,2.47
2023-01-11T13:24:27.405Z,2.70
2023-01-11T13:27:02.760Z,2.97
2023-01-11T13:29:50.404Z,3.53
2023-01-11T13:32:28.349Z,2.83
2023-01-11T13:35:31.965Z,2.57
2023-01-11T13:38:17.439Z,2.90
2023-01-11T13:40:53.024Z,2.27
2023-01-11T13:43:55.477Z,3.03
2023-01-11T13:46:43.880Z,3.10
2023-01-11T13:49:12.347Z,2.53
2023-01-11T13:52:03.703Z,3.13
2023-01-11T13:55:09.015Z,2.93
2023-01-11T13:58:01.309Z,2.72
2023-01-11T14:00:39.227Z,4.40
2023-01-11T14:03:32.765Z,3.87
2023-01-11T14:06:42.322Z,3.10
2023-01-11T14:09:40.944Z,3.63
2023-01-11T14:12:51.056Z,4.10
2023-01-11T14:15:26.607Z,3.30
2023-01-11T14:18:37.011Z,4.17
2023-01-11T14:21:52.514Z,3.50
2023-01-11T14:24:22.751Z,3.70
2023-01-11T14:27:13.404Z,2.50
2023-01-11T14:30:04.634Z,3.93
2023-01-11T14:32:47.659Z,4.10
2023-01-11T14:35:27.140Z,3.00
2023-01-11T14:38:35.537Z,2.87
2023-01-11T14:41:15.061Z,3.22
2023-01-11T14:44:23.021Z,3.27
2023-01-11T14:47:12.905Z,3.60
2023-01-11T14:50:13.533Z,3.97
2023-01-11T14:52:44.054Z,4.20
2023-01-11T14:55:22.874Z,3.20
2023-01-11T14:57:56.329Z,3.83
2023-01-11T15:00:23.749Z,3.30
2023-01-11T15:03:18.499Z,3.47
2023-01-11T15:06:10.394Z,3.00
2023-01-11T15:08:46.016Z,3.37
2023-01-11T15:11:34.368Z,3.13
2023-01-11T15:14:22.075Z,3.43
2023-01-11T15:17:11.556Z,3.20
2023-01-11T15:19:42.324Z,3.30
2023-01-11T15:22:30.168Z,3.53
2023-01-11T15:25:19.342Z,3.25
2023-01-11T15:27:48.432Z,2.93
2023-01-11T15:30:31.353Z,2.87
2023-01-11T15:33:17.155Z,3.33
2023-01-11T15:35:56.646Z,2.77
2023-01-11T15:38:49.671Z,3.40
2023-01-11T15:41:38.529Z,3.57
2023-01-11T15:44:33.706Z,3.30
2023-01-11T15:47:38.674Z,3.90
2023-01-11T15:50:09.006Z,3.73
2023-01-11T15:53:04.214Z,3.77
2023-01-11T15:56:22.054Z,3.83
2023-01-11T15:59:04.652Z,3.33
2023-01-11T16:01:47.429Z,2.83
2023-01-11T16:04:29.082Z,3.43
2023-01-11T16:07:22.689Z,3.73
2023-01-11T16:10:22.510Z,2.60
2023-01-11T16:12:50.162Z,2.97
2023-01-11T16:15:36.113Z,3.00
2023-01-11T16:18:45.607Z,3.10
2023-01-11T16:21:21.952Z,2.67
2023-01-11T16:23:49.869Z,2.97
2023-01-11T16:26:19.800Z,2.73
2023-01-11T16:29:18.124Z,3.00
2023-01-11T16:31:59.382Z,2.80
2023-01-11T16:34:30.798Z,3.13
2023-01-11T16:36:58.467Z,3.43
2023-01-11T16:39:29.603Z,3.03
2023-01-11T16:42:06.003Z,2.90
2023-01-11T16:44:41.321Z,2.97
2023-01-11T16:47:12.166Z,2.87
2023-01-11T16:49:41.388Z,3.00
2023-01-11T16:52:27.046Z,2.53
2023-01-11T16:55:00.917Z,3.00
2023-01-11T16:57:37.720Z,3.00
2023-01-11T17:00:18.831Z,2.57
2023-01-11T17:02:49.044Z,2.33
2023-01-11T17:05:22.910Z,2.53
2023-01-11T17:07:53.941Z,2.80
2023-01-11T17:10:29.425Z,2.80
2023-01-11T17:13:35.721Z,2.53
2023-01-11T17:16:09.962Z,2.73
2023-01-11T17:18:42.677Z,4.87
2023-01-11T17:21:26.742Z,4.07
2023-01-11T17:24:00.513Z,3.63
2023-01-11T17:26:32.249Z,2.93
2023-01-11T17:29:00.684Z,3.13
2023-01-11T17:31:32.346Z,3.57
2023-01-11T17:34:05.673Z,3.67
2023-01-11T17:36:33.486Z,3.50
2023-01-11T17:39:03.913Z,3.00
2023-01-11T17:41:50.464Z,4.77
2023-01-11T17:44:39.608Z,2.60
2023-01-11T17:47:11.099Z,2.70
2023-01-11T17:49:39.282Z,2.50
2023-01-11T17:52:23.605Z,2.27
2023-01-11T17:55:02.301Z,2.30
2023-01-11T17:57:31.855Z,2.57
2023-01-11T18:00:23.864Z,2.43
2023-01-11T18:02:53.528Z,2.70
2023-01-11T18:05:29.600Z,2.33
2023-01-11T18:07:59.463Z,2.40
2023-01-11T18:10:37.328Z,2.30
2023-01-11T18:13:05.089Z,2.10
2023-01-11T18:15:37.120Z,2.30
2023-01-11T18:18:44.930Z,1.83
2023-01-11T18:21:40.408Z,2.17
2023-01-11T18:24:21.599Z,2.10
2023-01-11T18:26:50.275Z,2.70
2023-01-11T18:29:46.773Z,2.67
2023-01-11T18:32:15.472Z,2.63
2023-01-11T18:34:46.047Z,2.17
2023-01-11T18:37:13.845Z,2.40
2023-01-11T18:39:42.793Z,2.03
2023-01-11T18:42:16.503Z,2.20
2023-01-11T18:44:46.858Z,1.90
2023-01-11T18:47:14.315Z,2.30
2023-01-11T18:49:41.924Z,1.80
2023-01-11T18:52:10.460Z,1.40
2023-01-11T18:54:38.201Z,2.33
2023-01-11T18:57:05.762Z,2.20
2023-01-11T18:59:35.574Z,2.07
2023-01-11T19:02:28.207Z,1.97
2023-01-11T19:04:57.201Z,2.57
2023-01-11T19:07:26.569Z,2.43
2023-01-11T19:09:59.421Z,2.40
2023-01-11T19:12:27.623Z,2.37
2023-01-11T19:14:55.209Z,2.13
2023-01-11T19:17:23.869Z,2.67
2023-01-11T19:19:51.657Z,1.93
2023-01-11T19:22:23.273Z,2.10
2023-01-11T19:24:54.380Z,1.93
2023-01-11T19:27:23.042Z,1.97
2023-01-11T19:29:51.701Z,2.47
2023-01-11T19:32:23.744Z,2.07
2023-01-11T19:34:52.444Z,2.37
2023-01-11T19:37:20.826Z,2.27
2023-01-11T19:39:48.347Z,2.33
2023-01-11T19:42:15.956Z,2.10
2023-01-11T19:44:43.880Z,1.80
2023-01-11T19:47:15.828Z,2.60
2023-01-11T19:49:44.962Z,2.10
2023-01-11T19:52:19.057Z,2.20
2023-01-11T19:54:46.947Z,2.50
2023-01-11T19:57:20.802Z,2.33
2023-01-11T19:59:49.808Z,2.37
2023-01-11T20:02:20.577Z,3.23
2023-01-11T20:04:48.776Z,3.13
2023-01-11T20:07:16.388Z,1.40
2023-01-11T20:09:43.897Z,2.87
2023-01-11T20:12:15.894Z,2.53
2023-01-11T20:14:44.693Z,5.03
2023-01-11T20:17:13.333Z,2.03
2023-01-11T20:19:40.877Z,2.50
2023-01-11T20:22:08.396Z,2.17
2023-01-11T20:24:35.910Z,3.13
2023-01-11T20:27:03.763Z,2.37
2023-01-11T20:29:31.285Z,2.00
2023-01-11T20:32:18.670Z,2.30
2023-01-11T20:34:46.397Z,2.15
2023-01-11T20:37:15.147Z,2.90
2023-01-11T20:39:43.154Z,2.13
2023-01-11T20:42:12.678Z,2.17
2023-01-11T20:44:40.347Z,2.13
2023-01-11T20:47:08.090Z,2.37
2023-01-11T20:49:35.569Z,2.07
2023-01-11T20:52:03.317Z,2.03
2023-01-11T20:54:30.910Z,3.93
2023-01-11T20:57:05.618Z,2.37
2023-01-11T20:59:33.265Z,2.40
2023-01-11T21:02:00.838Z,2.20
2023-01-11T21:04:28.374Z,1.90
2023-01-11T21:06:55.852Z,2.47
2023-01-11T21:09:23.377Z,2.33
2023-01-11T21:11:54.250Z,2.37
2023-01-11T21:14:22.879Z,2.40
2023-01-11T21:16:50.643Z,2.07
2023-01-11T21:19:18.219Z,2.07
2023-01-11T21:21:45.700Z,2.07
2023-01-11T21:24:15.590Z,2.57
2023-01-11T21:26:45.320Z,2.00
2023-01-11T21:29:13.307Z,2.13
2023-01-11T21:31:42.101Z,3.03
2023-01-11T21:34:12.394Z,2.50
2023-01-11T21:36:40.522Z,2.10
2023-01-11T21:39:09.400Z,2.10
2023-01-11T21:41:55.227Z,2.50
2023-01-11T21:44:32.159Z,2.30
2023-01-11T21:47:05.626Z,2.40
2023-01-11T21:49:35.586Z,2.20
2023-01-11T21:52:03.303Z,2.37
2023-01-11T21:54:30.923Z,2.40
2023-01-11T21:56:58.608Z,2.27
2023-01-11T21:59:26.386Z,2.30
2023-01-11T22:01:54.074Z,2.00
2023-01-11T22:04:21.822Z,2.17
2023-01-11T22:06:55.267Z,2.33
2023-01-11T22:09:25.875Z,2.43
2023-01-11T22:11:53.725Z,2.13
2023-01-11T22:14:21.689Z,2.33
2023-01-11T22:16:49.935Z,2.93
2023-01-11T22:19:17.652Z,1.80
2023-01-11T22:21:45.715Z,1.70
2023-01-11T22:24:13.351Z,2.20
2023-01-11T22:26:41.315Z,2.47
2023-01-11T22:29:13.069Z,2.40
2023-01-11T22:32:04.480Z,2.20
2023-01-11T22:34:34.794Z,2.10
2023-01-11T22:37:02.580Z,2.40
2023-01-11T22:39:30.386Z,2.33
2023-01-11T22:41:58.188Z,2.33
2023-01-11T22:44:25.836Z,2.47
2023-01-11T22:46:53.470Z,2.00
2023-01-11T22:49:21.077Z,2.43
2023-01-11T22:51:51.245Z,2.30
2023-01-11T22:54:18.885Z,2.20
2023-01-11T22:56:47.803Z,3.03
2023-01-11T22:59:15.253Z,3.30
2023-01-11T23:01:43.266Z,2.33
2023-01-11T23:04:14.250Z,2.20
2023-01-11T23:06:43.100Z,2.30
2023-01-11T23:09:16.710Z,2.00
2023-01-11T23:12:03.576Z,1.50
2023-01-11T23:14:33.127Z,3.03
2023-01-11T23:17:09.069Z,2.20
2023-01-11T23:19:39.346Z,2.00
2023-01-11T23:22:08.373Z,1.83
2023-01-11T23:24:37.342Z,2.30
2023-01-11T23:27:05.656Z,2.13
2023-01-11T23:29:33.249Z,2.30
2023-01-11T23:32:00.797Z,2.30
2023-01-11T23:34:28.481Z,2.00
2023-01-11T23:36:55.924Z,2.00
2023-01-11T23:39:26.225Z,2.40
2023-01-11T23:42:12.145Z,2.10
2023-01-11T23:44:39.667Z,2.23
2023-01-11T23:47:22.116Z,2.47
2023-01-11T23:49:54.286Z,2.43
2023-01-11T23:52:27.857Z,2.40
2023-01-11T23:54:55.497Z,2.00
2023-01-11T23:57:24.893Z,3.47
2023-01-11T23:59:52.675Z,2.00
